Time;durP1;ratioP1;P1;durP2;ratioP2;P2;SDS_P1;SDS_P2;PMS_P1;PMS_P2;Temp;Humidity;BMP_temperature;BMP_pressure;BME280_temperature;BME280_humidity;BME280_pressure;Samples;Min_cycle;Max_cycle;Signal;HPM_P1;HPM_P2
2024/01/13 00:05:15;;;;;;;17.20;10.30;;;;;;;-1.80;93.76;98911.60;435317;1256;110412;-39
2024/01/13 00:15:22;;;;;;;14.80;9.10;;;;;;;-1.74;93.88;98897.70;435282;1251;108499;-39
2024/01/13 00:25:28;;;;;;;27.90;13.10;;;;;;;-1.71;94.17;98876.96;435180;1256;99340;-39
2024/01/13 00:35:36;;;;;;;17.00;11.10;;;;;;;-1.73;94.49;98873.77;435201;1256;107553;-40
2024/01/13 00:55:51;;;;;;;14.40;9.10;;;;;;;-1.59;94.50;98853.21;434770;1251;572960;-39
2024/01/13 01:05:57;;;;;;;13.40;9.10;;;;;;;-1.52;94.75;98856.00;435267;1251;107510;-40
2024/01/13 01:16:06;;;;;;;13.60;8.80;;;;;;;-1.51;94.66;98849.30;435387;1255;97980;-39
2024/01/13 01:26:11;;;;;;;16.90;9.50;;;;;;;-1.58;94.91;98850.34;435353;1256;111140;-40
2024/01/13 01:36:19;;;;;;;16.40;10.10;;;;;;;-1.58;94.71;98835.47;435277;1256;109286;-40
2024/01/13 01:46:29;;;;;;;13.30;6.90;;;;;;;-1.54;94.80;98823.70;435238;1251;98844;-39
2024/01/13 01:56:36;;;;;;;7.70;5.40;;;;;;;-1.45;94.85;98814.04;435271;1255;110364;-39
2024/01/13 02:06:43;;;;;;;14.10;7.20;;;;;;;-1.42;94.80;98803.33;435422;1252;107469;-40
2024/01/13 02:16:48;;;;;;;18.30;8.30;;;;;;;-1.47;95.10;98793.77;435424;1255;99259;-38
2024/01/13 02:26:55;;;;;;;15.70;7.60;;;;;;;-1.50;94.91;98780.26;435322;1256;98033;-38
2024/01/13 02:37:02;;;;;;;15.00;8.30;;;;;;;-1.46;95.27;98769.63;435354;1251;108843;-39
2024/01/13 02:47:10;;;;;;;10.20;6.70;;;;;;;-1.40;95.05;98765.63;436112;1256;99240;-39
2024/01/13 02:57:17;;;;;;;18.20;8.60;;;;;;;-1.36;94.95;98751.19;435210;1255;108395;-39
2024/01/13 03:07:27;;;;;;;16.90;9.00;;;;;;;-1.40;95.28;98739.70;435211;1256;99191;-40
2024/01/13 03:17:34;;;;;;;21.00;10.50;;;;;;;-1.45;95.12;98732.92;435284;1253;112023;-40
2024/01/13 03:27:42;;;;;;;14.00;8.10;;;;;;;-1.49;95.06;98722.38;435122;1256;107912;-39
2024/01/13 03:47:56;;;;;;;12.50;7.60;;;;;;;-1.36;94.97;98735.84;435107;1255;109706;-39
2024/01/13 03:58:03;;;;;;;23.20;11.00;;;;;;;-1.38;95.06;98740.83;435198;1255;98003;-38
2024/01/13 04:08:10;;;;;;;22.00;11.40;;;;;;;-1.45;95.26;98740.20;435223;1255;111451;-38
2024/01/13 04:18:17;;;;;;;16.50;10.70;;;;;;;-1.49;95.06;98728.27;435214;1253;108611;-39
2024/01/13 04:28:24;;;;;;;14.60;8.10;;;;;;;-1.45;95.08;98716.63;435193;1255;97963;-40
2024/01/13 04:38:32;;;;;;;15.20;9.70;;;;;;;-1.40;95.31;98705.95;435208;1253;112119;-38
2024/01/13 04:58:46;;;;;;;21.20;11.80;;;;;;;-1.47;95.38;98680.20;435350;1255;98017;-40
2024/01/13 05:18:58;;;;;;;18.00;11.30;;;;;;;-1.40;95.15;98695.02;435120;1253;98923;-40
2024/01/13 05:29:05;;;;;;;14.60;9.80;;;;;;;-1.32;95.25;98687.45;435210;1255;111730;-40
2024/01/13 05:49:19;;;;;;;20.30;11.50;;;;;;;-1.33;95.72;98687.96;435262;1255;99228;-39
2024/01/13 05:59:26;;;;;;;15.80;10.60;;;;;;;-1.33;95.37;98673.41;435276;1255;110828;-38
2024/01/13 06:09:34;;;;;;;17.00;8.20;;;;;;;-1.24;95.39;98662.45;435129;1256;106801;-41
2024/01/13 06:19:41;;;;;;;15.80;9.40;;;;;;;-1.14;95.62;98664.60;435147;1256;99262;-39
2024/01/13 06:29:48;;;;;;;17.70;11.30;;;;;;;-1.09;95.59;98666.36;435313;1256;108124;-39
2024/01/13 06:39:55;;;;;;;24.90;13.20;;;;;;;-1.14;95.65;98674.42;435151;1256;99094;-40
2024/01/13 06:50:03;;;;;;;20.80;13.00;;;;;;;-1.22;95.78;98682.38;435357;1255;111083;-38
2024/01/13 07:10:18;;;;;;;19.60;12.10;;;;;;;-1.11;95.35;98665.91;435171;1256;99243;-39
2024/01/13 07:20:26;;;;;;;17.00;8.60;;;;;;;-1.01;95.51;98645.77;435186;1253;107312;-39
2024/01/13 07:30:31;;;;;;;18.50;11.30;;;;;;;-0.96;95.58;98650.11;435300;1256;99218;-39
2024/01/13 07:40:38;;;;;;;22.10;11.70;;;;;;;-0.96;95.66;98647.84;435312;1256;111098;-40
2024/01/13 07:50:46;;;;;;;25.30;14.10;;;;;;;-0.92;95.58;98653.16;435293;1251;108625;-40
2024/01/13 08:00:53;;;;;;;19.20;12.00;;;;;;;-0.82;95.51;98660.20;435183;1255;99265;-39
2024/01/13 08:11:00;;;;;;;17.70;10.80;;;;;;;-0.71;95.47;98659.52;435103;1253;107701;-39
2024/01/13 08:21:07;;;;;;;23.90;12.60;;;;;;;-0.63;95.71;98652.58;435147;1256;99314;-38
2024/01/13 08:31:18;;;;;;;24.70;14.00;;;;;;;-0.67;95.66;98643.16;435263;1257;110889;-39
2024/01/13 08:51:47;;;;;;;24.60;13.40;;;;;;;-0.54;95.65;98626.95;434969;1255;99389;-41
2024/01/13 09:01:55;;;;;;;24.30;11.40;;;;;;;-0.34;95.53;98615.52;435133;1255;112920;-39
2024/01/13 09:32:14;;;;;;;28.50;14.00;;;;;;;-0.11;95.85;98603.91;435352;1256;112926;-39
2024/01/13 09:42:28;;;;;;;14.40;8.50;;;;;;;-0.06;95.65;98579.48;435189;1256;108156;-38
2024/01/13 09:52:36;;;;;;;15.00;8.80;;;;;;;0.10;95.33;98556.27;435266;1256;98053;-40
2024/01/13 10:02:44;;;;;;;11.90;7.90;;;;;;;0.21;95.26;98548.93;435093;1265;108862;-39
2024/01/13 10:12:49;;;;;;;13.40;8.60;;;;;;;0.24;95.25;98544.19;435358;1256;99269;-40
2024/01/13 10:22:56;;;;;;;14.60;9.50;;;;;;;0.18;94.98;98535.29;435300;1256;110909;-39
2024/01/13 10:43:13;;;;;;;8.30;4.90;;;;;;;0.13;94.67;98512.75;435200;1256;99288;-39
2024/01/13 11:03:36;;;;;;;18.90;11.50;;;;;;;0.13;94.36;98477.88;435326;1253;108277;-39
2024/01/13 11:13:50;;;;;;;11.60;6.20;;;;;;;0.18;94.01;98462.98;435096;1255;98259;-38
2024/01/13 11:24:01;;;;;;;6.70;5.30;;;;;;;0.30;93.66;98440.91;435038;1264;110329;-38
2024/01/13 11:34:11;;;;;;;9.50;6.30;;;;;;;0.41;93.88;98425.63;435251;1256;107336;-40
2024/01/13 11:44:19;;;;;;;8.90;6.20;;;;;;;0.36;93.51;98403.29;435193;1256;99246;-39
2024/01/13 12:04:34;;;;;;;16.20;7.20;;;;;;;0.55;92.65;98369.89;435251;1256;99230;-39
2024/01/13 12:14:40;;;;;;;;;;;;;;;0.53;92.55;98351.60;435334;1255;113055;-39
2024/01/13 12:24:47;;;;;;;13.00;8.10;;;;;;;0.46;92.19;98334.66;435256;1251;108348;-39
2024/01/13 12:34:55;;;;;;;12.80;6.90;;;;;;;0.42;91.63;98316.45;435184;1251;99221;-40
2024/01/13 12:45:02;;;;;;;15.70;10.20;;;;;;;0.43;91.23;98319.95;435228;1257;107661;-39
2024/01/13 13:05:22;;;;;;;9.80;6.30;;;;;;;0.37;91.09;98278.30;435214;1256;112179;-40
2024/01/13 13:15:30;;;;;;;4.80;3.60;;;;;;;0.36;90.69;98274.94;435211;1256;107943;-40
2024/01/13 13:25:38;;;;;;;30.70;13.70;;;;;;;0.41;90.65;98271.02;435181;1251;99231;-38
2024/01/13 13:35:49;;;;;;;51.30;23.20;;;;;;;0.37;90.65;98269.27;435253;1256;111921;-39
2024/01/13 13:45:57;;;;;;;27.60;13.80;;;;;;;0.27;90.29;98264.99;435278;1257;107693;-40
2024/01/13 13:56:04;;;;;;;13.80;7.00;;;;;;;0.25;89.80;98253.08;435179;1251;99253;-40
2024/01/13 14:06:11;;;;;;;9.10;4.30;;;;;;;0.26;89.26;98240.05;435246;1256;110268;-39
2024/01/13 14:16:22;;;;;;;18.00;8.50;;;;;;;0.17;88.75;98227.52;435218;1251;108531;-39
2024/01/13 14:26:29;;;;;;;21.90;11.80;;;;;;;0.07;88.52;98225.42;435182;1255;99190;-39
2024/01/13 14:36:37;;;;;;;25.90;12.60;;;;;;;0.02;88.60;98184.23;435140;1251;108219;-38
2024/01/13 14:56:50;;;;;;;28.30;16.50;;;;;;;-0.17;88.63;98179.70;435300;1256;111758;-39
2024/01/13 15:06:57;;;;;;;18.20;10.60;;;;;;;-0.28;88.69;98189.14;435191;1256;109592;-40
2024/01/13 15:17:05;;;;;;;26.10;13.50;;;;;;;-0.33;88.71;98191.17;435172;1251;99074;-40
2024/01/13 15:27:12;;;;;;;22.50;12.70;;;;;;;-0.29;88.71;98174.30;435057;1256;112885;-43
2024/01/13 15:37:19;;;;;;;39.00;18.80;;;;;;;-0.29;88.73;98169.98;435144;1251;108174;-40
2024/01/13 15:57:32;;;;;;;19.60;12.20;;;;;;;-0.39;88.67;98141.52;435271;1251;111532;-39
2024/01/13 16:17:46;;;;;;;29.70;15.10;;;;;;;-0.38;88.67;98116.60;435210;1257;99232;-39
2024/01/13 16:38:00;;;;;;;25.60;14.00;;;;;;;-0.52;88.65;98094.38;435116;1251;110646;-40
2024/01/13 16:58:13;;;;;;;39.90;18.00;;;;;;;-0.46;88.49;98075.69;435370;1251;112509;-39
2024/01/13 17:08:21;;;;;;;31.40;17.50;;;;;;;-0.52;88.61;98050.91;435255;1251;108982;-38
2024/01/13 17:18:28;;;;;;;36.90;19.20;;;;;;;-0.61;88.64;98027.36;435266;1257;98051;-39
2024/01/13 17:28:35;;;;;;;23.60;12.00;;;;;;;-0.64;88.70;98017.55;435299;1251;111477;-40
2024/01/13 17:48:48;;;;;;;23.90;13.30;;;;;;;-0.55;88.67;98014.39;435267;1256;98563;-39
2024/01/13 17:58:54;;;;;;;29.30;17.70;;;;;;;-0.63;88.53;97975.41;435317;1256;110243;-39
2024/01/13 18:19:05;;;;;;;20.00;10.60;;;;;;;-0.58;88.54;97936.65;435337;1251;98611;-39
2024/01/13 18:29:11;;;;;;;26.40;16.80;;;;;;;-0.58;88.46;97931.02;435296;1255;108361;-39
2024/01/13 18:39:20;;;;;;;19.00;11.50;;;;;;;-0.66;88.46;97914.45;435288;1257;99346;-41
2024/01/13 18:49:27;;;;;;;11.80;9.60;;;;;;;-0.62;88.11;97908.48;435284;1251;110513;-40
2024/01/13 18:59:37;;;;;;;26.90;14.80;;;;;;;-0.58;88.25;97908.58;435235;1251;107324;-39
2024/01/13 19:09:45;;;;;;;28.00;16.00;;;;;;;-0.63;88.26;97896.88;435286;1252;99224;-39
2024/01/13 19:19:52;;;;;;;18.00;13.30;;;;;;;-0.69;88.25;97889.92;435238;1251;113019;-39
2024/01/13 19:29:59;;;;;;;18.00;11.10;;;;;;;-0.68;88.20;97880.87;435147;1258;107856;-39
2024/01/13 19:40:06;;;;;;;29.00;15.60;;;;;;;-0.71;88.21;97865.95;435396;1256;99848;-40
2024/01/13 19:50:10;;;;;;;36.40;19.50;;;;;;;-0.81;88.21;97856.66;435250;1255;108738;-39
2024/01/13 20:00:18;;;;;;;21.70;12.10;;;;;;;-0.87;88.29;97839.88;435307;1251;99230;-38
2024/01/13 20:20:31;;;;;;;29.90;17.50;;;;;;;-0.88;88.38;97798.66;435336;1251;108130;-40
2024/01/13 20:30:37;;;;;;;24.20;13.80;;;;;;;-0.99;88.29;97783.99;435392;1256;97979;-40
2024/01/13 20:40:44;;;;;;;19.90;11.30;;;;;;;-0.98;88.48;97762.77;435105;1256;108030;-39
2024/01/13 21:00:57;;;;;;;25.60;15.00;;;;;;;-1.00;88.50;97743.66;435279;1255;113352;-38
2024/01/13 21:11:04;;;;;;;27.60;15.50;;;;;;;-1.25;88.60;97725.14;435291;1255;107782;-38
2024/01/13 21:21:11;;;;;;;25.30;13.70;;;;;;;-1.34;89.11;97713.04;435326;1251;99221;-39
2024/01/13 21:31:18;;;;;;;19.20;12.30;;;;;;;-1.35;89.39;97693.48;435214;1251;108693;-39
2024/01/13 21:41:26;;;;;;;15.70;9.60;;;;;;;-1.37;89.60;97680.88;435243;1251;99224;-40
2024/01/13 21:51:33;;;;;;;19.90;11.20;;;;;;;-1.38;90.06;97679.51;435223;1256;112235;-40
2024/01/13 22:11:46;;;;;;;16.50;10.30;;;;;;;-1.29;90.30;97676.64;435329;1255;98104;-38
2024/01/13 22:21:56;;;;;;;16.80;8.70;;;;;;;-1.20;90.05;97673.14;435135;1251;108899;-38
2024/01/13 22:32:04;;;;;;;22.20;13.60;;;;;;;-1.11;90.21;97676.05;435300;1255;98003;-38
2024/01/13 22:42:12;;;;;;;21.90;11.60;;;;;;;-1.13;90.36;97674.83;435163;1255;110212;-38
2024/01/13 23:02:26;;;;;;;24.00;13.20;;;;;;;-0.96;90.35;97638.50;435148;1251;99249;-40
2024/01/13 23:12:32;;;;;;;23.50;14.10;;;;;;;-0.94;90.41;97623.98;435123;1251;111508;-39
2024/01/13 23:22:39;;;;;;;30.00;15.80;;;;;;;-1.01;90.73;97612.20;435322;1251;108754;-40
2024/01/13 23:42:53;;;;;;;21.30;12.10;;;;;;;-1.09;90.99;97586.44;435170;1251;108074;-40
